sensor_id;sensor_type;location;lat;lon;timestamp;P1;durP1;ratioP1;P2;durP2;ratioP2
56429;SDS011;42332;52.136;20.666;2023-12-14T00:01:34;27.40;;;11.65;;
56429;SDS011;42332;52.136;20.666;2023-12-14T00:04:00;36.45;;;13.30;;
56429;SDS011;42332;52.136;20.666;2023-12-14T00:06:25;38.35;;;13.52;;
56429;SDS011;42332;52.136;20.666;2023-12-14T00:08:50;43.70;;;13.43;;
56429;SDS011;42332;52.136;20.666;2023-12-14T00:11:16;38.45;;;11.70;;
56429;SDS011;42332;52.136;20.666;2023-12-14T00:13:41;40.28;;;13.90;;
56429;SDS011;42332;52.136;20.666;2023-12-14T00:16:07;37.60;;;13.10;;
56429;SDS011;42332;52.136;20.666;2023-12-14T00:18:32;38.30;;;11.77;;
56429;SDS011;42332;52.136;20.666;2023-12-14T00:20:58;36.25;;;12.10;;
56429;SDS011;42332;52.136;20.666;2023-12-14T00:23:23;32.38;;;10.75;;
56429;SDS011;42332;52.136;20.666;2023-12-14T00:25:49;33.50;;;10.70;;
56429;SDS011;42332;52.136;20.666;2023-12-14T00:28:14;31.25;;;11.60;;
56429;SDS011;42332;52.136;20.666;2023-12-14T00:30:40;30.80;;;12.18;;
56429;SDS011;42332;52.136;20.666;2023-12-14T00:33:05;29.45;;;11.02;;
56429;SDS011;42332;52.136;20.666;2023-12-14T00:35:30;22.17;;;8.32;;
56429;SDS011;42332;52.136;20.666;2023-12-14T00:37:56;23.10;;;9.95;;
56429;SDS011;42332;52.136;20.666;2023-12-14T00:40:21;26.58;;;9.73;;
56429;SDS011;42332;52.136;20.666;2023-12-14T00:42:47;31.00;;;10.52;;
56429;SDS011;42332;52.136;20.666;2023-12-14T00:45:12;33.85;;;12.55;;
56429;SDS011;42332;52.136;20.666;2023-12-14T00:47:37;25.35;;;10.70;;
56429;SDS011;42332;52.136;20.666;2023-12-14T00:50:03;33.75;;;11.32;;
56429;SDS011;42332;52.136;20.666;2023-12-14T00:52:29;29.58;;;9.98;;
56429;SDS011;42332;52.136;20.666;2023-12-14T00:54:54;27.98;;;10.70;;
56429;SDS011;42332;52.136;20.666;2023-12-14T00:57:20;16.25;;;6.75;;
56429;SDS011;42332;52.136;20.666;2023-12-14T00:59:45;31.63;;;9.60;;
56429;SDS011;42332;52.136;20.666;2023-12-14T01:02:11;18.55;;;8.20;;
56429;SDS011;42332;52.136;20.666;2023-12-14T01:04:36;21.40;;;8.20;;
56429;SDS011;42332;52.136;20.666;2023-12-14T01:07:02;25.85;;;9.15;;
56429;SDS011;42332;52.136;20.666;2023-12-14T01:09:28;28.55;;;9.02;;
56429;SDS011;42332;52.136;20.666;2023-12-14T01:11:53;30.75;;;8.98;;
56429;SDS011;42332;52.136;20.666;2023-12-14T01:14:19;24.08;;;9.50;;
56429;SDS011;42332;52.136;20.666;2023-12-14T01:16:44;20.58;;;7.20;;
56429;SDS011;42332;52.136;20.666;2023-12-14T01:19:09;27.77;;;10.02;;
56429;SDS011;42332;52.136;20.666;2023-12-14T01:21:35;24.13;;;9.85;;
56429;SDS011;42332;52.136;20.666;2023-12-14T01:24:00;27.42;;;10.25;;
56429;SDS011;42332;52.136;20.666;2023-12-14T01:26:26;21.60;;;9.25;;
56429;SDS011;42332;52.136;20.666;2023-12-14T01:28:51;21.95;;;8.50;;
56429;SDS011;42332;52.136;20.666;2023-12-14T01:31:17;26.95;;;9.30;;
56429;SDS011;42332;52.136;20.666;2023-12-14T01:33:42;30.02;;;9.52;;
56429;SDS011;42332;52.136;20.666;2023-12-14T01:36:08;32.22;;;10.05;;
56429;SDS011;42332;52.136;20.666;2023-12-14T01:38:33;23.15;;;9.45;;
56429;SDS011;42332;52.136;20.666;2023-12-14T01:40:59;26.27;;;11.20;;
56429;SDS011;42332;52.136;20.666;2023-12-14T01:43:24;30.73;;;11.63;;
56429;SDS011;42332;52.136;20.666;2023-12-14T01:45:50;22.05;;;9.50;;
56429;SDS011;42332;52.136;20.666;2023-12-14T01:48:15;23.50;;;9.70;;
56429;SDS011;42332;52.136;20.666;2023-12-14T01:50:40;30.30;;;10.10;;
56429;SDS011;42332;52.136;20.666;2023-12-14T01:53:06;29.98;;;10.75;;
56429;SDS011;42332;52.136;20.666;2023-12-14T01:55:31;23.00;;;10.90;;
56429;SDS011;42332;52.136;20.666;2023-12-14T01:57:56;23.55;;;11.07;;
56429;SDS011;42332;52.136;20.666;2023-12-14T02:00:29;34.40;;;10.82;;
56429;SDS011;42332;52.136;20.666;2023-12-14T02:03:00;30.15;;;10.60;;
56429;SDS011;42332;52.136;20.666;2023-12-14T02:05:25;29.48;;;10.35;;
56429;SDS011;42332;52.136;20.666;2023-12-14T02:07:50;25.73;;;9.77;;
56429;SDS011;42332;52.136;20.666;2023-12-14T02:10:16;28.13;;;11.07;;
56429;SDS011;42332;52.136;20.666;2023-12-14T02:12:41;33.92;;;11.85;;
56429;SDS011;42332;52.136;20.666;2023-12-14T02:15:06;24.95;;;8.13;;
56429;SDS011;42332;52.136;20.666;2023-12-14T02:17:32;25.02;;;10.45;;
56429;SDS011;42332;52.136;20.666;2023-12-14T02:19:57;31.13;;;10.05;;
56429;SDS011;42332;52.136;20.666;2023-12-14T02:22:24;30.08;;;11.77;;
56429;SDS011;42332;52.136;20.666;2023-12-14T02:24:50;22.40;;;9.07;;
56429;SDS011;42332;52.136;20.666;2023-12-14T02:27:15;27.85;;;11.55;;
56429;SDS011;42332;52.136;20.666;2023-12-14T02:29:40;32.67;;;11.60;;
56429;SDS011;42332;52.136;20.666;2023-12-14T02:32:06;34.20;;;12.07;;
56429;SDS011;42332;52.136;20.666;2023-12-14T02:34:31;30.38;;;11.00;;
56429;SDS011;42332;52.136;20.666;2023-12-14T02:36:56;35.22;;;11.70;;
56429;SDS011;42332;52.136;20.666;2023-12-14T02:39:22;35.67;;;11.77;;
56429;SDS011;42332;52.136;20.666;2023-12-14T02:41:47;38.00;;;10.85;;
56429;SDS011;42332;52.136;20.666;2023-12-14T02:44:12;27.88;;;10.55;;
56429;SDS011;42332;52.136;20.666;2023-12-14T02:46:38;33.08;;;11.13;;
56429;SDS011;42332;52.136;20.666;2023-12-14T02:49:03;32.63;;;11.75;;
56429;SDS011;42332;52.136;20.666;2023-12-14T02:51:29;26.80;;;11.40;;
56429;SDS011;42332;52.136;20.666;2023-12-14T02:53:54;30.73;;;11.43;;
56429;SDS011;42332;52.136;20.666;2023-12-14T02:56:22;41.45;;;11.98;;
56429;SDS011;42332;52.136;20.666;2023-12-14T02:58:49;34.65;;;13.27;;
56429;SDS011;42332;52.136;20.666;2023-12-14T03:01:18;35.50;;;12.65;;
56429;SDS011;42332;52.136;20.666;2023-12-14T03:03:45;41.95;;;13.68;;
56429;SDS011;42332;52.136;20.666;2023-12-14T03:06:11;35.53;;;12.75;;
56429;SDS011;42332;52.136;20.666;2023-12-14T03:08:36;40.47;;;13.02;;
56429;SDS011;42332;52.136;20.666;2023-12-14T03:11:02;38.72;;;13.10;;
56429;SDS011;42332;52.136;20.666;2023-12-14T03:13:27;37.50;;;12.48;;
56429;SDS011;42332;52.136;20.666;2023-12-14T03:15:53;40.83;;;12.70;;
56429;SDS011;42332;52.136;20.666;2023-12-14T03:18:18;48.60;;;14.50;;
56429;SDS011;42332;52.136;20.666;2023-12-14T03:20:44;45.13;;;13.50;;
56429;SDS011;42332;52.136;20.666;2023-12-14T03:23:09;55.88;;;16.20;;
56429;SDS011;42332;52.136;20.666;2023-12-14T03:25:35;54.42;;;15.60;;
56429;SDS011;42332;52.136;20.666;2023-12-14T03:28:00;37.15;;;12.70;;
56429;SDS011;42332;52.136;20.666;2023-12-14T03:30:25;59.90;;;15.05;;
56429;SDS011;42332;52.136;20.666;2023-12-14T03:32:52;40.13;;;11.40;;
56429;SDS011;42332;52.136;20.666;2023-12-14T03:35:17;43.25;;;15.63;;
56429;SDS011;42332;52.136;20.666;2023-12-14T03:37:42;42.45;;;12.48;;
56429;SDS011;42332;52.136;20.666;2023-12-14T03:40:08;46.00;;;13.93;;
56429;SDS011;42332;52.136;20.666;2023-12-14T03:42:33;39.28;;;14.13;;
56429;SDS011;42332;52.136;20.666;2023-12-14T03:44:59;44.08;;;13.48;;
56429;SDS011;42332;52.136;20.666;2023-12-14T03:47:25;48.70;;;15.98;;
56429;SDS011;42332;52.136;20.666;2023-12-14T03:49:50;42.53;;;15.85;;
56429;SDS011;42332;52.136;20.666;2023-12-14T03:52:16;38.25;;;14.57;;
56429;SDS011;42332;52.136;20.666;2023-12-14T03:54:41;43.63;;;13.43;;
56429;SDS011;42332;52.136;20.666;2023-12-14T03:57:06;53.97;;;15.15;;
56429;SDS011;42332;52.136;20.666;2023-12-14T03:59:32;44.88;;;13.90;;
56429;SDS011;42332;52.136;20.666;2023-12-14T04:01:57;53.20;;;16.38;;
56429;SDS011;42332;52.136;20.666;2023-12-14T04:04:23;38.85;;;14.63;;
56429;SDS011;42332;52.136;20.666;2023-12-14T04:06:48;50.00;;;15.05;;
56429;SDS011;42332;52.136;20.666;2023-12-14T04:09:14;45.83;;;14.68;;
56429;SDS011;42332;52.136;20.666;2023-12-14T04:11:39;37.60;;;12.52;;
56429;SDS011;42332;52.136;20.666;2023-12-14T04:14:04;40.20;;;13.07;;
56429;SDS011;42332;52.136;20.666;2023-12-14T04:16:30;41.08;;;14.68;;
56429;SDS011;42332;52.136;20.666;2023-12-14T04:18:55;40.85;;;14.32;;
56429;SDS011;42332;52.136;20.666;2023-12-14T04:21:21;38.55;;;13.57;;
56429;SDS011;42332;52.136;20.666;2023-12-14T04:23:46;46.67;;;13.65;;
56429;SDS011;42332;52.136;20.666;2023-12-14T04:26:12;49.75;;;15.20;;
56429;SDS011;42332;52.136;20.666;2023-12-14T04:28:39;39.53;;;13.15;;
56429;SDS011;42332;52.136;20.666;2023-12-14T04:31:04;31.77;;;12.00;;
56429;SDS011;42332;52.136;20.666;2023-12-14T04:33:30;43.92;;;14.02;;
56429;SDS011;42332;52.136;20.666;2023-12-14T04:35:56;45.58;;;15.43;;
56429;SDS011;42332;52.136;20.666;2023-12-14T04:38:22;44.28;;;14.82;;
56429;SDS011;42332;52.136;20.666;2023-12-14T04:40:47;42.58;;;12.15;;
56429;SDS011;42332;52.136;20.666;2023-12-14T04:43:13;45.85;;;15.18;;
56429;SDS011;42332;52.136;20.666;2023-12-14T04:45:38;44.50;;;13.30;;
56429;SDS011;42332;52.136;20.666;2023-12-14T04:48:04;41.50;;;14.65;;
56429;SDS011;42332;52.136;20.666;2023-12-14T04:50:29;43.50;;;13.75;;
56429;SDS011;42332;52.136;20.666;2023-12-14T04:52:55;47.47;;;15.90;;
56429;SDS011;42332;52.136;20.666;2023-12-14T04:55:20;43.35;;;13.73;;
56429;SDS011;42332;52.136;20.666;2023-12-14T04:57:45;42.97;;;13.18;;
56429;SDS011;42332;52.136;20.666;2023-12-14T05:00:11;42.92;;;15.50;;
56429;SDS011;42332;52.136;20.666;2023-12-14T05:02:37;55.15;;;15.23;;
56429;SDS011;42332;52.136;20.666;2023-12-14T05:05:03;36.22;;;13.43;;
56429;SDS011;42332;52.136;20.666;2023-12-14T05:07:28;36.67;;;13.77;;
56429;SDS011;42332;52.136;20.666;2023-12-14T05:09:55;51.15;;;13.65;;
56429;SDS011;42332;52.136;20.666;2023-12-14T05:12:20;48.72;;;15.52;;
56429;SDS011;42332;52.136;20.666;2023-12-14T05:14:46;44.25;;;15.15;;
56429;SDS011;42332;52.136;20.666;2023-12-14T05:17:11;50.40;;;14.50;;
56429;SDS011;42332;52.136;20.666;2023-12-14T05:19:36;56.53;;;14.15;;
56429;SDS011;42332;52.136;20.666;2023-12-14T05:22:02;36.45;;;13.05;;
56429;SDS011;42332;52.136;20.666;2023-12-14T05:24:27;43.67;;;12.00;;
56429;SDS011;42332;52.136;20.666;2023-12-14T05:26:53;35.38;;;10.98;;
56429;SDS011;42332;52.136;20.666;2023-12-14T05:29:18;39.60;;;12.73;;
56429;SDS011;42332;52.136;20.666;2023-12-14T05:31:46;39.58;;;14.18;;
56429;SDS011;42332;52.136;20.666;2023-12-14T05:34:12;31.05;;;10.85;;
56429;SDS011;42332;52.136;20.666;2023-12-14T05:36:37;40.83;;;11.38;;
56429;SDS011;42332;52.136;20.666;2023-12-14T05:39:02;37.25;;;11.93;;
56429;SDS011;42332;52.136;20.666;2023-12-14T05:41:29;39.22;;;13.35;;
56429;SDS011;42332;52.136;20.666;2023-12-14T05:43:55;34.63;;;12.25;;
56429;SDS011;42332;52.136;20.666;2023-12-14T05:46:21;31.42;;;11.48;;
56429;SDS011;42332;52.136;20.666;2023-12-14T05:48:48;48.50;;;13.57;;
56429;SDS011;42332;52.136;20.666;2023-12-14T05:51:25;40.70;;;12.85;;
56429;SDS011;42332;52.136;20.666;2023-12-14T05:53:54;39.42;;;12.80;;
56429;SDS011;42332;52.136;20.666;2023-12-14T05:56:19;35.65;;;11.68;;
56429;SDS011;42332;52.136;20.666;2023-12-14T05:58:44;48.67;;;14.52;;
56429;SDS011;42332;52.136;20.666;2023-12-14T06:01:10;33.10;;;10.88;;
56429;SDS011;42332;52.136;20.666;2023-12-14T06:03:35;29.73;;;11.32;;
56429;SDS011;42332;52.136;20.666;2023-12-14T06:06:00;45.72;;;13.75;;
56429;SDS011;42332;52.136;20.666;2023-12-14T06:08:26;28.75;;;11.45;;
56429;SDS011;42332;52.136;20.666;2023-12-14T06:10:51;41.85;;;13.95;;
56429;SDS011;42332;52.136;20.666;2023-12-14T06:13:16;42.05;;;11.50;;
56429;SDS011;42332;52.136;20.666;2023-12-14T06:15:42;36.22;;;12.57;;
56429;SDS011;42332;52.136;20.666;2023-12-14T06:18:07;35.15;;;12.32;;
56429;SDS011;42332;52.136;20.666;2023-12-14T06:20:32;41.10;;;12.90;;
56429;SDS011;42332;52.136;20.666;2023-12-14T06:22:58;52.97;;;12.88;;
56429;SDS011;42332;52.136;20.666;2023-12-14T06:25:23;37.63;;;11.45;;
56429;SDS011;42332;52.136;20.666;2023-12-14T06:27:48;35.42;;;12.15;;
56429;SDS011;42332;52.136;20.666;2023-12-14T06:30:14;35.10;;;11.32;;
56429;SDS011;42332;52.136;20.666;2023-12-14T06:32:40;37.75;;;10.10;;
56429;SDS011;42332;52.136;20.666;2023-12-14T06:35:05;34.00;;;11.45;;
56429;SDS011;42332;52.136;20.666;2023-12-14T06:37:31;42.30;;;12.00;;
56429;SDS011;42332;52.136;20.666;2023-12-14T06:39:56;36.97;;;11.55;;
56429;SDS011;42332;52.136;20.666;2023-12-14T06:42:22;40.92;;;12.30;;
56429;SDS011;42332;52.136;20.666;2023-12-14T06:44:47;37.10;;;11.23;;
56429;SDS011;42332;52.136;20.666;2023-12-14T06:47:12;41.65;;;12.23;;
56429;SDS011;42332;52.136;20.666;2023-12-14T06:49:38;35.97;;;13.07;;
56429;SDS011;42332;52.136;20.666;2023-12-14T06:52:06;38.58;;;13.32;;
56429;SDS011;42332;52.136;20.666;2023-12-14T06:54:32;35.17;;;12.90;;
56429;SDS011;42332;52.136;20.666;2023-12-14T06:56:58;41.08;;;12.63;;
56429;SDS011;42332;52.136;20.666;2023-12-14T06:59:23;42.00;;;13.18;;
56429;SDS011;42332;52.136;20.666;2023-12-14T07:01:48;34.28;;;11.52;;
56429;SDS011;42332;52.136;20.666;2023-12-14T07:04:14;42.67;;;12.07;;
56429;SDS011;42332;52.136;20.666;2023-12-14T07:06:39;32.80;;;12.88;;
56429;SDS011;42332;52.136;20.666;2023-12-14T07:09:04;39.30;;;12.07;;
56429;SDS011;42332;52.136;20.666;2023-12-14T07:11:30;24.50;;;9.90;;
56429;SDS011;42332;52.136;20.666;2023-12-14T07:13:55;39.50;;;12.18;;
56429;SDS011;42332;52.136;20.666;2023-12-14T07:16:21;35.22;;;11.48;;
56429;SDS011;42332;52.136;20.666;2023-12-14T07:18:46;40.85;;;10.70;;
56429;SDS011;42332;52.136;20.666;2023-12-14T07:21:12;42.67;;;12.27;;
56429;SDS011;42332;52.136;20.666;2023-12-14T07:23:37;33.80;;;11.02;;
56429;SDS011;42332;52.136;20.666;2023-12-14T07:26:02;40.40;;;11.02;;
56429;SDS011;42332;52.136;20.666;2023-12-14T07:28:28;37.33;;;12.38;;
56429;SDS011;42332;52.136;20.666;2023-12-14T07:30:53;32.63;;;11.80;;
56429;SDS011;42332;52.136;20.666;2023-12-14T07:33:19;37.17;;;11.68;;
56429;SDS011;42332;52.136;20.666;2023-12-14T07:35:45;45.10;;;12.40;;
56429;SDS011;42332;52.136;20.666;2023-12-14T07:38:10;50.00;;;12.32;;
56429;SDS011;42332;52.136;20.666;2023-12-14T07:40:36;43.35;;;11.52;;
56429;SDS011;42332;52.136;20.666;2023-12-14T07:43:03;49.13;;;14.02;;
56429;SDS011;42332;52.136;20.666;2023-12-14T07:45:29;45.25;;;12.82;;
56429;SDS011;42332;52.136;20.666;2023-12-14T07:47:54;40.13;;;13.20;;
56429;SDS011;42332;52.136;20.666;2023-12-14T07:50:19;38.38;;;12.23;;
56429;SDS011;42332;52.136;20.666;2023-12-14T07:52:45;29.20;;;10.43;;
56429;SDS011;42332;52.136;20.666;2023-12-14T07:55:10;52.45;;;13.48;;
56429;SDS011;42332;52.136;20.666;2023-12-14T07:57:35;46.53;;;12.60;;
56429;SDS011;42332;52.136;20.666;2023-12-14T08:00:01;37.85;;;11.65;;
56429;SDS011;42332;52.136;20.666;2023-12-14T08:02:26;41.83;;;13.77;;
56429;SDS011;42332;52.136;20.666;2023-12-14T08:04:52;49.20;;;16.15;;
56429;SDS011;42332;52.136;20.666;2023-12-14T08:07:17;37.70;;;13.10;;
56429;SDS011;42332;52.136;20.666;2023-12-14T08:09:43;36.65;;;12.90;;
56429;SDS011;42332;52.136;20.666;2023-12-14T08:12:08;46.45;;;12.98;;
56429;SDS011;42332;52.136;20.666;2023-12-14T08:14:33;30.65;;;10.88;;
56429;SDS011;42332;52.136;20.666;2023-12-14T08:16:59;47.72;;;12.75;;
56429;SDS011;42332;52.136;20.666;2023-12-14T08:19:25;42.00;;;13.93;;
56429;SDS011;42332;52.136;20.666;2023-12-14T08:21:50;42.25;;;11.73;;
56429;SDS011;42332;52.136;20.666;2023-12-14T08:24:15;32.35;;;11.27;;
56429;SDS011;42332;52.136;20.666;2023-12-14T08:26:41;35.45;;;11.18;;
56429;SDS011;42332;52.136;20.666;2023-12-14T08:29:06;36.67;;;10.82;;
56429;SDS011;42332;52.136;20.666;2023-12-14T08:31:31;34.35;;;10.45;;
56429;SDS011;42332;52.136;20.666;2023-12-14T08:33:57;42.30;;;10.60;;
56429;SDS011;42332;52.136;20.666;2023-12-14T08:36:22;37.78;;;13.23;;
56429;SDS011;42332;52.136;20.666;2023-12-14T08:38:47;38.00;;;13.35;;
56429;SDS011;42332;52.136;20.666;2023-12-14T08:41:13;41.72;;;13.35;;
56429;SDS011;42332;52.136;20.666;2023-12-14T08:43:39;50.00;;;10.95;;
56429;SDS011;42332;52.136;20.666;2023-12-14T08:46:05;34.40;;;10.75;;
56429;SDS011;42332;52.136;20.666;2023-12-14T08:48:30;38.75;;;11.88;;
56429;SDS011;42332;52.136;20.666;2023-12-14T08:50:55;33.53;;;11.13;;
56429;SDS011;42332;52.136;20.666;2023-12-14T08:53:21;40.97;;;13.20;;
56429;SDS011;42332;52.136;20.666;2023-12-14T08:55:46;37.25;;;13.07;;
56429;SDS011;42332;52.136;20.666;2023-12-14T08:58:12;35.78;;;11.65;;
56429;SDS011;42332;52.136;20.666;2023-12-14T09:00:37;42.97;;;11.95;;
56429;SDS011;42332;52.136;20.666;2023-12-14T09:03:03;31.67;;;10.25;;
56429;SDS011;42332;52.136;20.666;2023-12-14T09:05:29;42.30;;;13.93;;
56429;SDS011;42332;52.136;20.666;2023-12-14T09:07:54;34.45;;;10.73;;
56429;SDS011;42332;52.136;20.666;2023-12-14T09:10:21;40.22;;;11.80;;
56429;SDS011;42332;52.136;20.666;2023-12-14T09:12:47;37.80;;;12.82;;
56429;SDS011;42332;52.136;20.666;2023-12-14T09:15:13;49.10;;;15.15;;
56429;SDS011;42332;52.136;20.666;2023-12-14T09:17:40;38.38;;;11.77;;
56429;SDS011;42332;52.136;20.666;2023-12-14T09:20:07;37.63;;;10.90;;
56429;SDS011;42332;52.136;20.666;2023-12-14T09:22:33;45.33;;;12.20;;
56429;SDS011;42332;52.136;20.666;2023-12-14T09:24:58;41.05;;;12.85;;
56429;SDS011;42332;52.136;20.666;2023-12-14T09:27:23;47.72;;;11.60;;
56429;SDS011;42332;52.136;20.666;2023-12-14T09:29:49;34.67;;;10.75;;
56429;SDS011;42332;52.136;20.666;2023-12-14T09:32:14;29.25;;;9.63;;
56429;SDS011;42332;52.136;20.666;2023-12-14T09:34:42;36.67;;;8.70;;
56429;SDS011;42332;52.136;20.666;2023-12-14T09:37:07;42.10;;;12.10;;
56429;SDS011;42332;52.136;20.666;2023-12-14T09:39:33;35.28;;;11.15;;
56429;SDS011;42332;52.136;20.666;2023-12-14T09:42:04;30.35;;;11.20;;
56429;SDS011;42332;52.136;20.666;2023-12-14T09:44:31;27.20;;;10.40;;
56429;SDS011;42332;52.136;20.666;2023-12-14T09:46:58;33.30;;;10.13;;
56429;SDS011;42332;52.136;20.666;2023-12-14T09:49:25;38.33;;;10.68;;
56429;SDS011;42332;52.136;20.666;2023-12-14T09:51:54;37.30;;;11.48;;
56429;SDS011;42332;52.136;20.666;2023-12-14T09:54:22;35.95;;;9.65;;
56429;SDS011;42332;52.136;20.666;2023-12-14T09:56:48;40.00;;;11.05;;
56429;SDS011;42332;52.136;20.666;2023-12-14T09:59:14;44.53;;;10.73;;
56429;SDS011;42332;52.136;20.666;2023-12-14T10:01:39;38.75;;;11.43;;
56429;SDS011;42332;52.136;20.666;2023-12-14T10:04:11;30.30;;;11.50;;
56429;SDS011;42332;52.136;20.666;2023-12-14T10:06:38;44.42;;;13.07;;
56429;SDS011;42332;52.136;20.666;2023-12-14T10:09:04;40.78;;;11.52;;
56429;SDS011;42332;52.136;20.666;2023-12-14T10:11:34;34.45;;;11.48;;
56429;SDS011;42332;52.136;20.666;2023-12-14T10:13:59;35.78;;;11.23;;
56429;SDS011;42332;52.136;20.666;2023-12-14T10:16:31;33.17;;;10.77;;
56429;SDS011;42332;52.136;20.666;2023-12-14T10:18:58;37.47;;;11.43;;
56429;SDS011;42332;52.136;20.666;2023-12-14T10:21:25;27.08;;;10.00;;
56429;SDS011;42332;52.136;20.666;2023-12-14T10:23:51;33.10;;;11.95;;
56429;SDS011;42332;52.136;20.666;2023-12-14T10:26:16;36.88;;;12.20;;
56429;SDS011;42332;52.136;20.666;2023-12-14T10:28:42;42.05;;;11.35;;
56429;SDS011;42332;52.136;20.666;2023-12-14T10:31:08;34.55;;;11.23;;
56429;SDS011;42332;52.136;20.666;2023-12-14T10:33:35;42.78;;;11.60;;
56429;SDS011;42332;52.136;20.666;2023-12-14T10:36:00;33.25;;;9.82;;
56429;SDS011;42332;52.136;20.666;2023-12-14T10:38:26;36.42;;;9.63;;
56429;SDS011;42332;52.136;20.666;2023-12-14T10:40:53;24.17;;;9.20;;
56429;SDS011;42332;52.136;20.666;2023-12-14T10:43:20;36.05;;;10.60;;
56429;SDS011;42332;52.136;20.666;2023-12-14T10:45:46;34.83;;;10.98;;
56429;SDS011;42332;52.136;20.666;2023-12-14T10:48:13;34.80;;;9.75;;
56429;SDS011;42332;52.136;20.666;2023-12-14T10:50:38;32.50;;;9.25;;
56429;SDS011;42332;52.136;20.666;2023-12-14T10:53:07;34.88;;;8.43;;
56429;SDS011;42332;52.136;20.666;2023-12-14T10:55:36;29.08;;;11.13;;
56429;SDS011;42332;52.136;20.666;2023-12-14T10:58:03;27.45;;;9.95;;
56429;SDS011;42332;52.136;20.666;2023-12-14T11:00:30;24.95;;;9.95;;
56429;SDS011;42332;52.136;20.666;2023-12-14T11:02:56;30.38;;;10.40;;
56429;SDS011;42332;52.136;20.666;2023-12-14T11:05:22;26.25;;;8.95;;
56429;SDS011;42332;52.136;20.666;2023-12-14T11:07:55;27.10;;;9.18;;
56429;SDS011;42332;52.136;20.666;2023-12-14T11:10:26;29.55;;;11.93;;
56429;SDS011;42332;52.136;20.666;2023-12-14T11:13:02;37.65;;;10.73;;
56429;SDS011;42332;52.136;20.666;2023-12-14T11:15:29;37.80;;;10.88;;
56429;SDS011;42332;52.136;20.666;2023-12-14T11:23:29;46.20;;;12.63;;
56429;SDS011;42332;52.136;20.666;2023-12-14T11:25:57;40.42;;;11.07;;
56429;SDS011;42332;52.136;20.666;2023-12-14T11:28:28;39.35;;;10.40;;
56429;SDS011;42332;52.136;20.666;2023-12-14T11:30:55;46.60;;;12.25;;
56429;SDS011;42332;52.136;20.666;2023-12-14T11:33:21;35.38;;;11.02;;
56429;SDS011;42332;52.136;20.666;2023-12-14T11:35:46;43.38;;;12.43;;
56429;SDS011;42332;52.136;20.666;2023-12-14T11:38:11;34.15;;;12.50;;
56429;SDS011;42332;52.136;20.666;2023-12-14T11:40:44;35.95;;;11.30;;
56429;SDS011;42332;52.136;20.666;2023-12-14T11:43:10;36.53;;;12.18;;
56429;SDS011;42332;52.136;20.666;2023-12-14T11:45:36;24.75;;;10.20;;
56429;SDS011;42332;52.136;20.666;2023-12-14T11:48:03;30.45;;;10.75;;
56429;SDS011;42332;52.136;20.666;2023-12-14T11:50:30;31.10;;;11.45;;
56429;SDS011;42332;52.136;20.666;2023-12-14T11:52:57;28.08;;;11.65;;
56429;SDS011;42332;52.136;20.666;2023-12-14T11:55:22;30.80;;;11.20;;
56429;SDS011;42332;52.136;20.666;2023-12-14T11:57:47;26.15;;;10.68;;
56429;SDS011;42332;52.136;20.666;2023-12-14T12:00:14;33.33;;;9.70;;
56429;SDS011;42332;52.136;20.666;2023-12-14T12:02:40;34.38;;;11.90;;
56429;SDS011;42332;52.136;20.666;2023-12-14T12:05:08;27.40;;;10.98;;
56429;SDS011;42332;52.136;20.666;2023-12-14T12:07:38;37.00;;;10.73;;
56429;SDS011;42332;52.136;20.666;2023-12-14T12:10:04;38.58;;;10.93;;
56429;SDS011;42332;52.136;20.666;2023-12-14T12:12:32;34.65;;;13.23;;
56429;SDS011;42332;52.136;20.666;2023-12-14T12:14:58;33.55;;;12.65;;
56429;SDS011;42332;52.136;20.666;2023-12-14T12:17:24;32.47;;;10.63;;
56429;SDS011;42332;52.136;20.666;2023-12-14T12:19:49;21.27;;;8.50;;
56429;SDS011;42332;52.136;20.666;2023-12-14T12:22:15;23.08;;;8.60;;
56429;SDS011;42332;52.136;20.666;2023-12-14T12:24:40;37.50;;;9.10;;
56429;SDS011;42332;52.136;20.666;2023-12-14T12:27:05;21.35;;;9.27;;
56429;SDS011;42332;52.136;20.666;2023-12-14T12:29:31;27.77;;;10.63;;
56429;SDS011;42332;52.136;20.666;2023-12-14T12:31:56;26.95;;;9.02;;
56429;SDS011;42332;52.136;20.666;2023-12-14T12:34:22;32.03;;;10.80;;
56429;SDS011;42332;52.136;20.666;2023-12-14T12:36:48;35.97;;;11.02;;
56429;SDS011;42332;52.136;20.666;2023-12-14T12:39:13;35.22;;;10.20;;
56429;SDS011;42332;52.136;20.666;2023-12-14T12:41:39;33.17;;;8.68;;
56429;SDS011;42332;52.136;20.666;2023-12-14T12:44:05;22.08;;;8.35;;
56429;SDS011;42332;52.136;20.666;2023-12-14T12:46:34;26.23;;;10.40;;
56429;SDS011;42332;52.136;20.666;2023-12-14T12:49:04;29.73;;;9.75;;
56429;SDS011;42332;52.136;20.666;2023-12-14T12:51:30;21.02;;;7.60;;
56429;SDS011;42332;52.136;20.666;2023-12-14T12:53:56;25.02;;;8.35;;
56429;SDS011;42332;52.136;20.666;2023-12-14T12:56:22;22.85;;;9.75;;
56429;SDS011;42332;52.136;20.666;2023-12-14T12:58:53;26.40;;;10.13;;
56429;SDS011;42332;52.136;20.666;2023-12-14T13:01:22;31.05;;;9.98;;
56429;SDS011;42332;52.136;20.666;2023-12-14T13:03:54;27.90;;;9.65;;
56429;SDS011;42332;52.136;20.666;2023-12-14T13:06:22;29.02;;;10.23;;
56429;SDS011;42332;52.136;20.666;2023-12-14T13:08:48;30.83;;;8.93;;
56429;SDS011;42332;52.136;20.666;2023-12-14T13:11:14;34.78;;;10.05;;
56429;SDS011;42332;52.136;20.666;2023-12-14T13:13:39;35.63;;;9.93;;
56429;SDS011;42332;52.136;20.666;2023-12-14T13:16:05;28.75;;;10.00;;
56429;SDS011;42332;52.136;20.666;2023-12-14T13:18:31;27.67;;;10.75;;
56429;SDS011;42332;52.136;20.666;2023-12-14T13:20:56;25.67;;;10.45;;
56429;SDS011;42332;52.136;20.666;2023-12-14T13:23:22;36.22;;;13.95;;
56429;SDS011;42332;52.136;20.666;2023-12-14T13:25:47;37.75;;;11.90;;
56429;SDS011;42332;52.136;20.666;2023-12-14T13:28:14;43.42;;;11.80;;
56429;SDS011;42332;52.136;20.666;2023-12-14T13:30:39;32.15;;;10.63;;
56429;SDS011;42332;52.136;20.666;2023-12-14T13:33:06;32.42;;;10.48;;
56429;SDS011;42332;52.136;20.666;2023-12-14T13:35:34;31.85;;;11.07;;
56429;SDS011;42332;52.136;20.666;2023-12-14T13:37:59;40.50;;;11.63;;
56429;SDS011;42332;52.136;20.666;2023-12-14T13:40:25;37.13;;;10.98;;
56429;SDS011;42332;52.136;20.666;2023-12-14T13:42:50;34.90;;;11.93;;
56429;SDS011;42332;52.136;20.666;2023-12-14T13:45:16;45.50;;;12.65;;
56429;SDS011;42332;52.136;20.666;2023-12-14T13:47:42;37.53;;;11.77;;
56429;SDS011;42332;52.136;20.666;2023-12-14T13:50:07;40.40;;;12.38;;
56429;SDS011;42332;52.136;20.666;2023-12-14T13:52:33;29.30;;;10.77;;
56429;SDS011;42332;52.136;20.666;2023-12-14T13:54:59;39.67;;;13.30;;
56429;SDS011;42332;52.136;20.666;2023-12-14T13:57:24;37.72;;;12.70;;
56429;SDS011;42332;52.136;20.666;2023-12-14T13:59:49;33.90;;;11.98;;
56429;SDS011;42332;52.136;20.666;2023-12-14T14:02:15;35.17;;;9.88;;
56429;SDS011;42332;52.136;20.666;2023-12-14T14:04:40;45.95;;;13.18;;
56429;SDS011;42332;52.136;20.666;2023-12-14T14:07:06;34.15;;;12.25;;
56429;SDS011;42332;52.136;20.666;2023-12-14T14:09:31;30.67;;;11.68;;